Time;durP1;ratioP1;P1;durP2;ratioP2;P2;SDS_P1;SDS_P2;PMS_P1;PMS_P2;Temp;Humidity;BMP_temperature;BMP_pressure;BME280_temperature;BME280_humidity;BME280_pressure;Samples;Min_cycle;Max_cycle;Signal;HPM_P1;HPM_P2
2023/05/29 00:00:22;;;;;;;15.52;5.97;;;;;;;10.98;95.42;102258.66;5034325;28;20052;-86
2023/05/29 00:02:50;;;;;;;12.30;5.63;;;;;;;11.19;96.00;102293.94;5052795;28;20021;-83
2023/05/29 00:05:16;;;;;;;17.63;5.65;;;;;;;10.95;96.84;102283.78;5052862;28;20017;-86
2023/05/29 00:07:42;;;;;;;14.50;5.88;;;;;;;11.08;96.60;102308.22;5052640;28;20024;-90
2023/05/29 00:10:09;;;;;;;15.15;5.40;;;;;;;10.78;96.03;102274.13;5052676;28;20025;-88
2023/05/29 00:12:35;;;;;;;11.40;4.93;;;;;;;10.94;94.96;102313.13;5052526;28;20013;-79
2023/05/29 00:15:02;;;;;;;15.15;4.80;;;;;;;10.91;93.91;102320.13;5052840;28;20035;-89
2023/05/29 00:17:27;;;;;;;14.90;4.65;;;;;;;10.91;92.76;102314.94;5052958;28;20384;-82
2023/05/29 00:19:53;;;;;;;17.70;4.40;;;;;;;10.52;92.53;102275.19;5052551;28;20025;-86
2023/05/29 00:22:19;;;;;;;11.32;4.20;;;;;;;10.76;92.19;102322.47;5052429;28;20025;-85
2023/05/29 00:24:44;;;;;;;15.00;3.97;;;;;;;10.62;92.23;102304.94;5034018;28;20069;-82
2023/05/29 00:27:09;;;;;;;14.93;4.40;;;;;;;10.35;91.53;102278.44;5052564;28;20100;-82
2023/05/29 00:29:37;;;;;;;16.33;4.10;;;;;;;10.52;91.88;102309.63;5052572;28;20477;-77
2023/05/29 00:32:03;;;;;;;14.80;4.20;;;;;;;10.50;90.61;102313.97;5052787;28;20037;-86
2023/05/29 00:34:29;;;;;;;14.13;3.95;;;;;;;10.51;90.06;102320.81;5052327;28;20523;-88
2023/05/29 00:36:56;;;;;;;13.13;4.18;;;;;;;10.47;90.47;102323.59;5052599;28;20017;-87
2023/05/29 00:39:22;;;;;;;13.93;3.78;;;;;;;10.45;91.04;102336.56;5052494;28;20021;-89
2023/05/29 00:41:50;;;;;;;14.55;3.92;;;;;;;10.40;90.54;102330.72;5052642;28;20370;-88
2023/05/29 00:44:17;;;;;;;13.77;4.82;;;;;;;10.38;90.15;102334.28;5052030;28;20401;-87
2023/05/29 00:46:42;;;;;;;9.82;3.85;;;;;;;10.35;90.24;102332.66;5052480;28;20033;-89
2023/05/29 00:49:08;;;;;;;16.92;4.32;;;;;;;10.32;90.16;102340.50;5034450;28;20040;-89
2023/05/29 00:51:33;;;;;;;17.38;4.30;;;;;;;10.17;90.23;102330.75;5052465;28;20037;-87
2023/05/29 00:53:59;;;;;;;17.33;4.15;;;;;;;10.11;90.02;102323.22;5052667;28;20108;-87
2023/05/29 00:56:25;;;;;;;15.38;4.05;;;;;;;10.23;90.26;102343.47;5052411;28;20115;-89
2023/05/29 00:58:52;;;;;;;12.35;4.25;;;;;;;10.12;90.50;102338.63;5052305;28;20032;-90
2023/05/29 01:01:18;;;;;;;12.90;3.90;;;;;;;10.09;90.77;102350.81;5052411;28;20029;-87
2023/05/29 01:03:45;;;;;;;15.98;4.55;;;;;;;10.04;91.09;102356.16;5052143;28;20040;-90
2023/05/29 01:06:10;;;;;;;15.25;3.72;;;;;;;10.02;91.36;102360.50;5054615;28;20029;-89
2023/05/29 01:08:36;;;;;;;11.88;3.60;;;;;;;9.78;91.78;102319.22;5056170;28;20503;-88
2023/05/29 01:11:12;;;;;;;15.18;3.83;;;;;;;9.92;92.02;102360.00;5037413;28;20115;-88
2023/05/29 01:13:41;;;;;;;12.00;4.18;;;;;;;9.92;92.15;102356.59;5055943;28;20029;-88
2023/05/29 01:16:16;;;;;;;15.52;4.07;;;;;;;9.84;92.14;102356.03;5055984;28;20032;-87
2023/05/29 01:18:51;;;;;;;15.05;3.85;;;;;;;9.59;92.54;102325.94;5055837;28;20053;-89
2023/05/29 01:21:27;;;;;;;15.93;3.78;;;;;;;9.70;92.67;102359.09;5055805;28;20080;-89
2023/05/29 01:24:02;;;;;;;15.80;4.40;;;;;;;9.29;93.08;102289.16;5055731;28;20496;-87
2023/05/29 01:26:43;;;;;;;16.42;4.13;;;;;;;9.44;93.04;102323.91;5055835;28;20028;-87
2023/05/29 01:29:12;;;;;;;11.70;3.25;;;;;;;9.63;93.25;102358.44;5055843;28;20131;-86
2023/05/29 01:31:39;;;;;;;13.48;4.28;;;;;;;9.56;93.57;102354.41;5055522;28;20075;-88
2023/05/29 01:34:05;;;;;;;15.82;3.55;;;;;;;9.38;93.44;102337.81;5055682;28;20017;-87
2023/05/29 01:36:32;;;;;;;13.40;3.72;;;;;;;9.42;93.76;102338.56;5036801;28;20041;-87
2023/05/29 01:38:58;;;;;;;14.85;4.07;;;;;;;9.50;94.11;102359.78;5055218;28;20438;-88
2023/05/29 01:41:25;;;;;;;13.77;3.58;;;;;;;9.34;94.17;102343.13;5055439;28;20357;-87
2023/05/29 01:43:52;;;;;;;17.73;3.95;;;;;;;9.45;94.33;102359.94;5055214;28;20508;-86
2023/05/29 01:46:19;;;;;;;14.95;3.38;;;;;;;9.41;94.20;102360.91;5055340;28;20044;-86
2023/05/29 01:48:45;;;;;;;16.23;3.70;;;;;;;9.22;94.40;102326.34;5055265;28;20440;-87
2023/05/29 01:51:12;;;;;;;14.93;4.07;;;;;;;9.26;94.33;102340.81;5054870;28;20484;-90
2023/05/29 01:53:38;;;;;;;15.93;3.58;;;;;;;9.25;94.14;102333.16;5055156;28;20048;-86
2023/05/29 01:56:05;;;;;;;18.17;4.50;;;;;;;9.29;94.47;102345.03;5055369;28;20080;-82
2023/05/29 01:58:31;;;;;;;15.32;3.92;;;;;;;9.07;94.96;102317.38;5055187;28;20025;-81
2023/05/29 02:00:57;;;;;;;15.13;4.13;;;;;;;9.14;94.73;102339.50;5054965;28;20025;-83
2023/05/29 02:03:23;;;;;;;15.55;3.70;;;;;;;9.20;94.86;102359.06;5054784;28;20040;-83
2023/05/29 02:05:49;;;;;;;15.85;3.47;;;;;;;9.14;95.02;102351.50;5054913;28;20024;-85
2023/05/29 02:08:15;;;;;;;16.90;3.28;;;;;;;9.02;95.07;102336.47;5054983;28;20461;-87
2023/05/29 02:10:40;;;;;;;15.75;3.70;;;;;;;8.87;94.94;102319.78;5054842;28;20021;-87
2023/05/29 02:13:05;;;;;;;16.30;4.13;;;;;;;8.93;95.12;102331.59;5054850;28;20025;-88
2023/05/29 02:15:31;;;;;;;14.68;3.20;;;;;;;9.07;95.03;102360.34;5054659;28;20039;-85
2023/05/29 02:17:57;;;;;;;12.95;3.30;;;;;;;9.02;94.92;102357.91;5053629;28;20044;-85
2023/05/29 02:20:23;;;;;;;13.98;3.53;;;;;;;8.99;95.21;102363.16;5035830;28;20120;-86
2023/05/29 02:22:48;;;;;;;17.65;3.33;;;;;;;8.95;95.28;102359.03;5054681;28;20487;-88
2023/05/29 02:25:14;;;;;;;15.05;3.33;;;;;;;8.91;95.75;102367.72;5054530;28;20037;-87
2023/05/29 02:27:39;;;;;;;15.27;4.47;;;;;;;8.88;95.58;102360.09;5054496;28;20016;-87
2023/05/29 02:30:06;;;;;;;16.67;4.38;;;;;;;8.68;95.34;102334.97;5054549;28;20024;-88
2023/05/29 02:32:31;;;;;;;15.13;3.50;;;;;;;8.83;95.50;102364.53;5054531;28;20108;-88
2023/05/29 02:34:57;;;;;;;13.55;3.42;;;;;;;8.67;95.17;102346.16;5054369;28;20128;-87
2023/05/29 02:37:25;;;;;;;12.93;3.55;;;;;;;8.76;95.25;102365.63;5036115;28;20044;-73
2023/05/29 02:39:51;;;;;;;15.38;4.07;;;;;;;8.57;95.68;102349.91;5054242;28;20040;-87
2023/05/29 02:42:17;;;;;;;13.40;3.67;;;;;;;8.73;95.26;102363.13;5054280;28;20028;-86
2023/05/29 02:44:42;;;;;;;14.80;3.30;;;;;;;8.70;95.38;102363.25;5054048;28;20041;-86
2023/05/29 02:47:07;;;;;;;16.42;3.55;;;;;;;8.64;95.69;102361.69;5054203;28;20032;-85
2023/05/29 02:49:32;;;;;;;15.23;3.45;;;;;;;8.73;95.93;102382.00;5054300;28;20040;-85
2023/05/29 02:51:58;;;;;;;20.27;3.90;;;;;;;8.48;95.83;102347.59;5054062;28;20060;-86
2023/05/29 02:54:25;;;;;;;14.55;3.83;;;;;;;8.52;96.28;102367.19;5035625;28;20072;-87
2023/05/29 02:56:50;;;;;;;17.17;3.53;;;;;;;8.40;96.47;102344.41;5054440;28;20044;-83
2023/05/29 02:59:16;;;;;;;14.77;3.47;;;;;;;8.62;96.92;102386.63;5053817;28;20029;-84
2023/05/29 03:01:42;;;;;;;17.10;4.20;;;;;;;8.43;97.36;102349.44;5054079;28;20025;-87
2023/05/29 03:04:10;;;;;;;12.52;3.92;;;;;;;8.56;97.45;102373.97;5054031;28;20480;-84
2023/05/29 03:06:36;;;;;;;18.75;4.57;;;;;;;8.53;97.70;102377.44;5053913;28;20392;-89
2023/05/29 03:09:02;;;;;;;17.27;3.72;;;;;;;8.52;98.17;102377.50;5053639;28;20027;-88
2023/05/29 03:11:28;;;;;;;19.48;3.83;;;;;;;8.18;98.59;102319.28;5053714;28;20037;-88
2023/05/29 03:13:54;;;;;;;17.27;3.92;;;;;;;8.26;98.56;102337.91;5053596;28;20059;-79
2023/05/29 03:16:20;;;;;;;16.80;4.18;;;;;;;8.32;98.89;102348.00;5053837;28;20021;-86
2023/05/29 03:18:46;;;;;;;19.27;3.85;;;;;;;8.44;98.95;102379.44;5054328;28;20096;-87
2023/05/29 03:21:11;;;;;;;18.10;4.30;;;;;;;8.40;99.45;102378.72;5053488;28;20044;-88
2023/05/29 03:23:37;;;;;;;15.75;3.78;;;;;;;8.40;99.58;102383.00;5053653;28;20055;-88
2023/05/29 03:26:03;;;;;;;14.60;3.72;;;;;;;8.35;99.93;102380.56;5053644;28;20556;-88
2023/05/29 03:28:29;;;;;;;19.10;4.15;;;;;;;8.36;100.00;102382.28;5035735;28;20364;-86
2023/05/29 03:30:54;;;;;;;15.13;4.10;;;;;;;8.17;100.00;102352.78;5053462;28;20040;-88
2023/05/29 03:33:19;;;;;;;17.58;4.00;;;;;;;8.30;100.00;102393.53;5053406;28;20427;-88
2023/05/29 03:35:45;;;;;;;18.35;4.10;;;;;;;8.29;100.00;102394.44;5053026;28;20017;-89
2023/05/29 03:38:10;;;;;;;19.08;3.72;;;;;;;8.29;100.00;102393.59;5053519;28;20036;-88
2023/05/29 03:40:35;;;;;;;21.17;4.55;;;;;;;8.10;100.00;102362.38;5053251;28;20047;-89
2023/05/29 03:43:01;;;;;;;18.30;3.95;;;;;;;8.23;100.00;102384.28;5035087;28;20045;-89
2023/05/29 03:45:26;;;;;;;19.20;3.70;;;;;;;8.16;100.00;102367.38;5053136;28;20025;-88
2023/05/29 03:47:51;;;;;;;16.73;4.05;;;;;;;8.29;100.00;102385.88;5053253;28;20094;-88
2023/05/29 03:50:17;;;;;;;18.50;4.47;;;;;;;7.97;100.00;102337.91;5053080;28;20487;-87
2023/05/29 03:52:42;;;;;;;18.85;4.55;;;;;;;8.25;100.00;102392.81;5052910;28;20047;-87
2023/05/29 03:55:12;;;;;;;17.52;4.28;;;;;;;8.27;100.00;102395.38;5052854;28;20036;-81
2023/05/29 03:57:40;;;;;;;16.73;4.03;;;;;;;8.22;100.00;102382.63;5052949;28;20025;-82
2023/05/29 04:00:09;;;;;;;20.20;4.15;;;;;;;8.32;100.00;102398.63;5035195;28;20035;-85
2023/05/29 04:02:34;;;;;;;16.13;4.13;;;;;;;8.32;100.00;102399.47;5053091;28;20021;-88
2023/05/29 04:05:00;;;;;;;18.73;4.20;;;;;;;8.26;100.00;102401.41;5052983;28;20025;-86
2023/05/29 04:07:25;;;;;;;13.60;3.70;;;;;;;8.32;100.00;102412.34;5052742;28;20020;-89
2023/05/29 04:09:50;;;;;;;22.08;4.28;;;;;;;8.29;100.00;102401.31;5052563;28;20115;-88
2023/05/29 04:12:16;;;;;;;16.95;3.88;;;;;;;8.08;100.00;102364.16;5052582;28;20476;-88
2023/05/29 04:14:41;;;;;;;15.10;4.05;;;;;;;8.32;100.00;102409.78;5052682;28;20032;-89
2023/05/29 04:17:07;;;;;;;19.92;3.42;;;;;;;8.13;100.00;102367.44;5052822;28;20032;-89
2023/05/29 04:19:34;;;;;;;16.15;4.03;;;;;;;8.48;100.00;102419.69;5052739;28;20025;-88
2023/05/29 04:22:00;;;;;;;17.50;3.58;;;;;;;8.51;99.84;102420.44;5052585;28;20055;-89
2023/05/29 04:24:25;;;;;;;18.15;4.00;;;;;;;8.24;99.80;102362.81;5052491;28;20016;-88
2023/05/29 04:26:51;;;;;;;15.50;3.88;;;;;;;8.39;99.10;102384.75;5052572;28;20025;-85
2023/05/29 04:29:16;;;;;;;16.38;4.25;;;;;;;8.61;98.86;102421.84;5052618;28;20057;-89
2023/05/29 04:31:42;;;;;;;18.88;4.50;;;;;;;8.59;99.19;102410.75;5052444;28;20493;-88
2023/05/29 04:34:08;;;;;;;19.05;3.60;;;;;;;8.62;98.23;102413.22;5034706;28;20121;-83
2023/05/29 04:36:37;;;;;;;15.90;3.40;;;;;;;8.56;97.56;102392.00;5052596;28;20017;-85
2023/05/29 04:39:02;;;;;;;14.95;3.60;;;;;;;8.76;97.74;102430.88;5033767;28;20388;-87
2023/05/29 04:41:30;;;;;;;14.75;3.22;;;;;;;8.78;97.92;102431.66;5055115;28;20108;-86
2023/05/29 04:43:56;;;;;;;16.52;3.42;;;;;;;8.44;97.21;102370.00;5056574;28;20045;-87
2023/05/29 04:46:23;;;;;;;16.30;3.72;;;;;;;8.87;97.25;102433.13;5056761;28;20074;-88
2023/05/29 04:48:52;;;;;;;15.10;4.28;;;;;;;8.97;97.38;102436.25;5056894;28;20094;-88
2023/05/29 04:51:19;;;;;;;17.20;4.10;;;;;;;9.04;95.74;102432.59;5056312;28;20021;-88
2023/05/29 04:53:46;;;;;;;22.10;4.70;;;;;;;8.84;96.10;102408.28;5056243;28;20477;-87
2023/05/29 04:56:12;;;;;;;16.13;4.10;;;;;;;9.01;96.01;102436.09;5056439;28;20021;-86
2023/05/29 04:58:38;;;;;;;16.67;3.90;;;;;;;9.15;95.75;102430.53;5056272;28;20029;-82
2023/05/29 05:01:03;;;;;;;14.27;3.30;;;;;;;9.18;94.92;102420.97;5056256;28;20082;-87
2023/05/29 05:03:33;;;;;;;17.13;3.55;;;;;;;9.34;94.40;102428.19;5056155;28;20054;-90
2023/05/29 05:06:06;;;;;;;10.77;3.40;;;;;;;9.46;93.51;102427.81;5038177;28;20036;-86
2023/05/29 05:08:32;;;;;;;17.52;3.42;;;;;;;9.66;92.33;102428.00;5057072;28;20029;-85
2023/05/29 05:10:59;;;;;;;17.90;3.85;;;;;;;9.84;91.71;102434.28;5038930;28;20025;-81
2023/05/29 05:13:25;;;;;;;18.20;4.20;;;;;;;10.08;91.13;102435.16;5056894;28;20046;-89
2023/05/29 05:15:51;;;;;;;14.45;4.00;;;;;;;10.25;89.61;102434.59;5056147;28;20099;-88
2023/05/29 05:18:16;;;;;;;15.38;4.05;;;;;;;10.41;88.03;102447.78;5056026;28;20025;-87
2023/05/29 05:20:41;;;;;;;21.95;4.03;;;;;;;10.59;87.93;102447.94;5056531;28;20025;-88
2023/05/29 05:23:07;;;;;;;15.82;3.67;;;;;;;10.86;86.18;102458.16;5037792;28;20047;-89
2023/05/29 05:25:34;;;;;;;18.15;4.63;;;;;;;10.70;85.33;102405.38;5038226;28;20021;-88
2023/05/29 05:28:00;;;;;;;11.13;2.90;;;;;;;11.24;83.38;102453.25;5056547;28;20068;-82
2023/05/29 05:30:25;;;;;;;14.90;3.53;;;;;;;11.56;82.27;102465.72;5057268;28;20071;-86
2023/05/29 05:32:51;;;;;;;17.90;4.07;;;;;;;11.98;79.95;102457.94;5039868;28;20040;-88
2023/05/29 05:35:16;;;;;;;15.27;3.67;;;;;;;12.63;78.63;102461.97;5057010;28;20021;-88
2023/05/29 05:37:41;;;;;;;17.77;4.05;;;;;;;13.17;75.21;102443.88;5038088;28;20041;-87
2023/05/29 05:40:08;;;;;;;18.75;4.10;;;;;;;13.58;70.92;102454.06;5038018;28;20037;-88
2023/05/29 05:42:33;;;;;;;13.90;3.30;;;;;;;13.73;71.35;102435.09;5055684;28;20552;-86
2023/05/29 05:44:59;;;;;;;14.50;3.25;;;;;;;14.35;68.73;102473.44;5055336;28;20120;-86
2023/05/29 05:47:25;;;;;;;17.00;3.25;;;;;;;14.74;67.22;102466.19;5055384;28;20370;-86
2023/05/29 05:49:51;;;;;;;12.95;2.97;;;;;;;15.04;64.84;102469.69;5055407;28;20416;-85
2023/05/29 05:52:17;;;;;;;16.33;3.13;;;;;;;15.05;63.78;102439.34;5053881;28;20048;-87
2023/05/29 05:54:43;;;;;;;16.02;2.90;;;;;;;15.48;63.34;102463.75;5055279;28;20040;-85
2023/05/29 05:57:08;;;;;;;17.08;2.88;;;;;;;15.66;61.45;102451.47;5055212;28;20119;-87
2023/05/29 05:59:33;;;;;;;16.88;3.28;;;;;;;15.87;60.75;102452.81;5053533;28;20024;-76
2023/05/29 06:01:59;;;;;;;16.00;3.42;;;;;;;16.29;59.44;102445.94;5055823;28;20476;-81
2023/05/29 06:04:24;;;;;;;16.30;3.60;;;;;;;16.62;57.94;102448.25;5055402;28;20076;-83
2023/05/29 06:06:49;;;;;;;16.63;4.03;;;;;;;16.54;57.73;102461.75;5036787;28;20400;-82
2023/05/29 06:09:15;;;;;;;18.25;3.33;;;;;;;16.31;57.06;102463.16;5054768;28;20372;-82
2023/05/29 06:11:40;;;;;;;12.52;3.05;;;;;;;16.35;58.16;102442.97;5053941;28;20028;-75
2023/05/29 06:14:06;;;;;;;14.43;3.45;;;;;;;16.43;57.93;102432.06;5054698;28;20094;-74
2023/05/29 06:16:31;;;;;;;14.27;3.20;;;;;;;16.98;56.05;102463.34;5036650;28;20365;-89
2023/05/29 06:18:57;;;;;;;12.13;3.20;;;;;;;16.99;54.43;102459.81;5054788;28;20029;-76
2023/05/29 06:21:23;;;;;;;11.82;2.70;;;;;;;16.53;55.22;102414.91;5035925;28;20036;-87
2023/05/29 06:23:49;;;;;;;14.55;2.72;;;;;;;17.12;54.11;102458.09;5054858;28;20118;-78
2023/05/29 06:26:15;;;;;;;12.27;2.95;;;;;;;17.71;52.72;102481.25;5054815;28;20053;-75
2023/05/29 06:28:41;;;;;;;10.55;2.63;;;;;;;18.02;51.63;102478.22;5054625;28;20025;-80
2023/05/29 06:31:06;;;;;;;15.45;3.28;;;;;;;17.97;51.40;102455.94;5054715;28;20036;-84
2023/05/29 06:33:32;;;;;;;12.43;3.28;;;;;;;17.66;52.35;102486.72;5054224;28;20124;-84
2023/05/29 06:35:57;;;;;;;12.73;2.70;;;;;;;17.73;52.55;102479.38;5054544;28;20040;-83
2023/05/29 06:38:22;;;;;;;12.02;2.55;;;;;;;17.74;52.00;102481.03;5054310;28;20107;-83
2023/05/29 06:40:48;;;;;;;11.40;2.40;;;;;;;17.54;51.25;102486.72;5054280;28;20029;-83
2023/05/29 06:43:13;;;;;;;11.13;2.78;;;;;;;17.53;51.39;102482.44;5054147;28;20080;-83
2023/05/29 06:45:39;;;;;;;11.10;2.83;;;;;;;18.06;50.61;102479.69;5053979;28;20036;-75
2023/05/29 06:48:04;;;;;;;14.63;2.78;;;;;;;17.99;50.46;102449.69;5054492;28;20036;-78
2023/05/29 06:50:30;;;;;;;11.93;3.05;;;;;;;18.08;49.62;102483.97;5053999;28;20048;-79
2023/05/29 06:52:55;;;;;;;12.02;2.95;;;;;;;17.37;50.11;102486.03;5053945;28;20029;-77
2023/05/29 06:55:21;;;;;;;12.38;2.72;;;;;;;16.87;52.79;102484.91;5053877;28;20013;-83
2023/05/29 06:57:46;;;;;;;14.02;3.00;;;;;;;17.28;51.91;102476.19;5036063;28;20025;-80
2023/05/29 07:00:12;;;;;;;11.25;3.35;;;;;;;17.68;49.35;102486.63;5053891;28;20492;-77
2023/05/29 07:02:38;;;;;;;14.30;2.58;;;;;;;17.63;50.27;102483.50;5053930;28;20027;-78
2023/05/29 07:05:03;;;;;;;12.45;2.72;;;;;;;17.73;50.48;102450.63;5053568;28;20112;-80
2023/05/29 07:07:29;;;;;;;12.00;2.88;;;;;;;18.42;48.37;102487.72;5053907;28;20036;-81
2023/05/29 07:09:54;;;;;;;10.30;2.72;;;;;;;18.14;48.58;102486.19;5053588;28;20032;-78
2023/05/29 07:12:21;;;;;;;10.35;2.42;;;;;;;18.23;48.06;102475.91;5054039;28;20021;-77
2023/05/29 07:14:48;;;;;;;10.70;2.75;;;;;;;18.83;47.88;102484.81;5053606;28;20021;-79
2023/05/29 07:17:13;;;;;;;11.18;2.78;;;;;;;19.56;46.40;102487.31;5053921;28;20107;-82
2023/05/29 07:19:39;;;;;;;11.48;2.55;;;;;;;19.93;43.67;102480.13;5053878;28;20517;-76
2023/05/29 07:22:04;;;;;;;10.48;2.20;;;;;;;19.61;44.63;102485.22;5053805;28;20048;-77
2023/05/29 07:24:30;;;;;;;10.63;2.78;;;;;;;19.45;45.42;102474.16;5053552;28;20025;-76
2023/05/29 07:26:55;;;;;;;10.70;2.75;;;;;;;19.39;44.90;102469.38;5053473;28;20408;-77
2023/05/29 07:29:23;;;;;;;11.15;2.65;;;;;;;19.79;45.16;102490.03;5034699;28;20128;-77
2023/05/29 07:31:51;;;;;;;11.80;2.65;;;;;;;19.62;44.94;102492.13;5053465;28;20033;-79
2023/05/29 07:34:17;;;;;;;8.82;2.45;;;;;;;18.98;46.12;102480.28;5053565;28;20029;-82
2023/05/29 07:36:58;;;;;;;13.85;2.40;;;;;;;18.01;47.80;102501.88;5035398;28;20099;-77
2023/05/29 07:39:24;;;;;;;18.92;2.95;;;;;;;17.06;50.94;102499.41;5053231;28;20037;-76
2023/05/29 07:41:49;;;;;;;8.85;2.40;;;;;;;16.48;52.88;102495.19;5053205;28;20380;-82
2023/05/29 07:44:15;;;;;;;11.18;2.80;;;;;;;16.12;53.92;102499.06;5052751;28;20148;-75
2023/05/29 07:46:40;;;;;;;11.73;2.80;;;;;;;15.70;54.35;102492.88;5053183;28;20096;-76
2023/05/29 07:49:05;;;;;;;9.65;2.72;;;;;;;15.66;55.29;102514.81;5053164;28;20021;-75
2023/05/29 07:51:31;;;;;;;12.73;2.90;;;;;;;15.53;55.57;102495.56;5052932;28;20079;-79
2023/05/29 07:53:56;;;;;;;11.07;2.80;;;;;;;15.54;56.27;102514.66;5052750;28;20025;-82
2023/05/29 07:56:22;;;;;;;15.25;2.47;;;;;;;15.15;55.88;102492.56;5052755;28;20017;-77
2023/05/29 07:58:47;;;;;;;12.90;2.80;;;;;;;14.99;57.19;102505.56;5034807;28;20021;-78
2023/05/29 08:01:13;;;;;;;11.38;3.10;;;;;;;14.84;57.77;102506.38;5052768;28;20042;-77
2023/05/29 08:03:40;;;;;;;13.60;2.75;;;;;;;14.82;59.04;102498.66;5053071;28;20102;-80
2023/05/29 08:06:06;;;;;;;11.70;2.40;;;;;;;14.89;58.46;102497.41;5053020;28;20138;-74
2023/05/29 08:08:31;;;;;;;11.27;2.55;;;;;;;14.83;58.06;102505.53;5052955;28;20079;-77
2023/05/29 08:10:57;;;;;;;11.43;2.60;;;;;;;14.85;58.58;102513.28;5053096;28;20526;-76
2023/05/29 08:13:22;;;;;;;10.95;2.67;;;;;;;14.64;58.43;102487.47;5052998;28;20112;-82
2023/05/29 08:15:48;;;;;;;10.25;2.33;;;;;;;14.86;58.78;102512.38;5051647;28;20017;-84
2023/05/29 08:18:13;;;;;;;13.38;3.42;;;;;;;14.81;57.56;102490.94;5052739;28;20384;-72
2023/05/29 08:20:38;;;;;;;11.60;2.80;;;;;;;14.91;58.38;102516.38;5052845;28;20403;-76
2023/05/29 08:23:06;;;;;;;11.68;3.05;;;;;;;14.79;59.18;102496.22;5052674;28;20075;-85
2023/05/29 08:25:31;;;;;;;17.70;3.47;;;;;;;14.95;57.73;102522.25;5052509;28;20431;-86
2023/05/29 08:27:57;;;;;;;11.50;2.38;;;;;;;14.88;57.90;102520.91;5053045;28;20025;-87
2023/05/29 08:30:22;;;;;;;8.85;2.33;;;;;;;14.84;58.73;102517.63;5052767;28;20495;-87
2023/05/29 08:32:48;;;;;;;9.90;2.67;;;;;;;14.71;58.10;102521.81;5035093;28;20716;-85
2023/05/29 08:35:14;;;;;;;15.02;3.17;;;;;;;14.64;59.06;102526.47;5053741;28;20068;-87
2023/05/29 08:37:40;;;;;;;10.93;2.30;;;;;;;14.71;58.57;102520.97;5034775;28;20021;-90
2023/05/29 08:40:09;;;;;;;9.80;2.60;;;;;;;14.77;57.89;102520.66;5035201;28;20469;-92
2023/05/29 08:49:13;;;;;;;11.05;2.70;;;;;;;15.26;58.48;102524.00;5030488;28;20060;-84
2023/05/29 08:52:24;;;;;;;15.05;3.10;;;;;;;15.54;58.26;102535.50;5030085;28;20041;-86
2023/05/29 08:54:54;;;;;;;12.15;2.17;;;;;;;15.43;55.41;102539.50;4971240;28;20113;-86
2023/05/29 08:57:34;;;;;;;9.13;2.58;;;;;;;14.85;56.81;102471.66;4971573;28;20042;-86
2023/05/29 09:00:22;;;;;;;8.82;2.40;;;;;;;14.10;57.12;102348.31;4971683;28;20065;-87
2023/05/29 09:03:02;;;;;;;11.95;2.42;;;;;;;14.31;56.38;102359.31;4971420;28;20030;-86
2023/05/29 09:05:29;;;;;;;8.15;2.35;;;;;;;15.33;57.02;102514.09;4971413;28;20063;-84
2023/05/29 09:08:04;;;;;;;12.27;2.72;;;;;;;14.97;55.87;102431.97;4971461;28;20030;-85
2023/05/29 09:10:43;;;;;;;10.60;2.72;;;;;;;15.27;54.83;102431.16;4971239;28;20154;-88
2023/05/29 09:13:28;;;;;;;8.93;2.65;;;;;;;15.17;54.92;102402.22;4971834;28;20126;-87
2023/05/29 09:16:09;;;;;;;8.07;2.72;;;;;;;15.95;54.44;102531.38;4971446;28;20027;-83
2023/05/29 09:18:34;;;;;;;12.07;2.15;;;;;;;16.10;54.79;102534.81;4971367;28;20042;-88
2023/05/29 09:21:08;;;;;;;12.80;2.63;;;;;;;16.13;53.48;102519.03;4971445;28;20030;-88
2023/05/29 09:23:34;;;;;;;11.48;2.58;;;;;;;16.06;53.46;102526.34;4971521;28;20034;-88
2023/05/29 09:26:02;;;;;;;9.40;2.33;;;;;;;15.98;54.81;102530.34;4983758;28;20041;-86
2023/05/29 09:28:31;;;;;;;9.18;2.88;;;;;;;15.95;54.71;102546.16;4994802;28;20429;-86
2023/05/29 09:30:56;;;;;;;10.63;3.03;;;;;;;15.90;55.16;102509.09;5006611;28;20032;-76
2023/05/29 09:33:22;;;;;;;10.48;2.55;;;;;;;15.97;54.68;102497.41;5075789;28;20071;-86
2023/05/29 09:35:50;;;;;;;13.30;2.75;;;;;;;16.17;55.04;102510.06;5075592;28;20046;-87
2023/05/29 09:38:17;;;;;;;11.45;2.88;;;;;;;16.42;54.47;102516.41;5076026;28;20021;-86
2023/05/29 09:40:45;;;;;;;9.90;2.80;;;;;;;16.18;53.09;102457.03;5075494;28;20040;-87
2023/05/29 09:43:13;;;;;;;10.82;3.00;;;;;;;16.41;53.15;102514.72;5075892;28;20033;-83
2023/05/29 09:45:44;;;;;;;12.50;2.90;;;;;;;16.31;54.39;102512.69;5076052;28;20059;-86
2023/05/29 09:48:15;;;;;;;10.82;2.75;;;;;;;16.26;54.59;102499.09;5055475;28;20039;-85
2023/05/29 09:50:44;;;;;;;11.73;2.78;;;;;;;16.42;54.22;102506.84;5055533;28;20032;-85
2023/05/29 09:53:28;;;;;;;8.60;2.60;;;;;;;16.60;53.78;102525.72;5055400;28;20028;-82
2023/05/29 09:56:00;;;;;;;11.27;2.60;;;;;;;16.64;52.35;102524.63;5055453;28;20079;-75
2023/05/29 09:58:26;;;;;;;11.07;2.80;;;;;;;16.52;53.66;102525.38;5055300;28;20424;-85
2023/05/29 10:00:52;;;;;;;13.18;3.05;;;;;;;16.61;54.32;102525.63;5054905;28;20025;-81
2023/05/29 10:03:21;;;;;;;8.48;2.45;;;;;;;16.50;52.14;102515.00;5037230;28;20411;-83
2023/05/29 10:05:50;;;;;;;8.25;2.70;;;;;;;16.28;53.03;102496.41;5055423;28;20028;-85
2023/05/29 10:08:18;;;;;;;10.48;3.03;;;;;;;16.46;54.39;102520.53;5055311;28;20376;-81
2023/05/29 10:10:47;;;;;;;10.07;2.85;;;;;;;16.34;52.96;102494.28;5055102;28;20128;-82
2023/05/29 10:13:13;;;;;;;7.38;2.40;;;;;;;16.64;55.12;102522.00;5055126;28;20534;-82
2023/05/29 10:15:44;;;;;;;8.18;2.50;;;;;;;16.69;52.35;102524.34;5054090;28;20079;-76
2023/05/29 10:18:39;;;;;;;11.25;2.75;;;;;;;16.59;53.17;102511.84;5054963;28;20017;-84
2023/05/29 10:21:07;;;;;;;11.80;3.28;;;;;;;16.51;51.85;102511.47;5054923;28;20025;-85
2023/05/29 10:23:36;;;;;;;9.60;2.67;;;;;;;16.59;52.60;102518.84;5054816;28;20021;-83
2023/05/29 10:26:12;;;;;;;9.52;2.75;;;;;;;16.67;52.46;102498.34;5054575;28;20454;-76
2023/05/29 10:28:41;;;;;;;11.07;3.00;;;;;;;16.84;53.35;102511.19;5054314;28;20039;-85
2023/05/29 10:31:16;;;;;;;10.45;2.42;;;;;;;16.92;53.62;102514.19;5054457;28;20080;-83
2023/05/29 10:34:11;;;;;;;10.85;2.55;;;;;;;17.04;52.46;102506.50;5054622;28;20114;-81
2023/05/29 10:36:44;;;;;;;9.02;2.33;;;;;;;17.19;53.35;102505.50;5054313;28;20111;-83
2023/05/29 10:39:10;;;;;;;9.88;2.72;;;;;;;17.34;52.44;102501.09;5053393;28;20060;-86
2023/05/29 10:41:39;;;;;;;11.32;2.67;;;;;;;17.38;48.87;102502.53;5054493;28;20461;-83
2023/05/29 10:44:30;;;;;;;13.25;2.88;;;;;;;17.50;51.38;102499.13;5036344;28;20397;-82
2023/05/29 10:46:57;;;;;;;9.18;3.00;;;;;;;17.50;51.15;102493.91;5063486;28;20048;-85
2023/05/29 10:49:23;;;;;;;10.68;2.90;;;;;;;17.45;51.30;102486.38;5074331;28;20044;-80
2023/05/29 10:51:52;;;;;;;9.82;2.80;;;;;;;17.45;48.93;102472.50;5074250;28;20020;-82
2023/05/29 10:54:25;;;;;;;10.65;2.80;;;;;;;17.49;50.06;102506.13;5074161;28;20032;-83
2023/05/29 10:57:00;;;;;;;8.80;2.60;;;;;;;17.59;51.29;102506.34;5073907;28;20012;-83
2023/05/29 10:59:27;;;;;;;8.70;2.72;;;;;;;17.36;50.59;102450.41;5074013;28;20040;-80
2023/05/29 11:01:54;;;;;;;10.40;3.30;;;;;;;17.73;50.88;102490.66;5072085;28;20097;-82
2023/05/29 11:04:22;;;;;;;10.85;2.95;;;;;;;17.83;49.77;102501.31;5074073;28;20055;-76
2023/05/29 11:06:48;;;;;;;11.27;2.40;;;;;;;17.58;48.70;102485.56;5073813;28;20047;-79
2023/05/29 11:09:36;;;;;;;9.52;2.40;;;;;;;17.53;50.33;102495.50;5074125;28;20021;-78
2023/05/29 11:12:35;;;;;;;10.43;2.60;;;;;;;17.61;50.02;102491.44;5073403;28;20433;-80
2023/05/29 11:15:06;;;;;;;10.80;2.50;;;;;;;17.66;49.86;102483.28;5073779;28;20025;-80
2023/05/29 11:17:42;;;;;;;8.80;2.30;;;;;;;17.58;50.42;102473.34;5073440;28;20376;-78
2023/05/29 11:20:31;;;;;;;8.82;2.50;;;;;;;17.44;48.90;102442.09;5073633;28;20112;-80
2023/05/29 11:22:59;;;;;;;10.02;2.95;;;;;;;17.74;49.62;102491.50;5073142;28;20448;-81
2023/05/29 11:25:24;;;;;;;8.90;2.65;;;;;;;17.61;49.91;102469.72;5073457;28;20029;-78
2023/05/29 11:27:53;;;;;;;8.20;2.75;;;;;;;17.81;47.90;102491.94;5073139;28;20090;-79